Saint Angelo, United Kingdom
Current Conditions -  °F | °C
As of 10:00 AM on Thursday 23 Oct 2014 (Local Time) from EISG Reporting Station
Broken Clouds Broken Clouds  
Wind Chill: 12°   Ceiling: 4100
Heat Index: 12°   Visibility: 6mi
Dew Point: 11°   Wind: 6mph
Humidity: 94%   Direction: 190°S
Pressure: 29.8"   Gusts: NA
Location:  54.4°N, 7.65°W
Report Text: EISG 230900Z 19005KT 070V230 9999 FEW011 SCT032 BKN041 12/11 Q1009
Loading
Personal Weather Stations






























Interactive Weather Map
Tropical Storm Tracking
New forecast layout! Learn more

10-Day Weather Forecast

Advertisements
Track Severe Weather on mobile